sensor_id;sensor_type;location;lat;lon;timestamp;P1;durP1;ratioP1;P2;durP2;ratioP2
60614;SDS011;46444;45.590;5.284;2022-07-23T00:00:14;12.02;;;7.85;;
60614;SDS011;46444;45.590;5.284;2022-07-23T00:02:40;12.43;;;7.65;;
60614;SDS011;46444;45.590;5.284;2022-07-23T00:05:06;11.40;;;7.50;;
60614;SDS011;46444;45.590;5.284;2022-07-23T00:07:31;11.48;;;7.57;;
60614;SDS011;46444;45.590;5.284;2022-07-23T00:09:57;9.25;;;7.78;;
60614;SDS011;46444;45.590;5.284;2022-07-23T00:12:22;11.38;;;7.82;;
60614;SDS011;46444;45.590;5.284;2022-07-23T00:14:48;11.18;;;7.15;;
60614;SDS011;46444;45.590;5.284;2022-07-23T00:17:13;8.73;;;7.82;;
60614;SDS011;46444;45.590;5.284;2022-07-23T00:19:39;8.82;;;7.75;;
60614;SDS011;46444;45.590;5.284;2022-07-23T00:22:04;10.73;;;7.80;;
60614;SDS011;46444;45.590;5.284;2022-07-23T00:24:30;9.07;;;8.02;;
60614;SDS011;46444;45.590;5.284;2022-07-23T00:26:55;13.63;;;8.15;;
60614;SDS011;46444;45.590;5.284;2022-07-23T00:29:20;11.90;;;7.72;;
60614;SDS011;46444;45.590;5.284;2022-07-23T00:31:46;11.75;;;8.32;;
60614;SDS011;46444;45.590;5.284;2022-07-23T00:34:11;22.42;;;10.75;;
60614;SDS011;46444;45.590;5.284;2022-07-23T00:36:37;14.90;;;9.57;;
60614;SDS011;46444;45.590;5.284;2022-07-23T00:39:03;13.50;;;9.60;;
60614;SDS011;46444;45.590;5.284;2022-07-23T00:41:28;16.65;;;9.85;;
60614;SDS011;46444;45.590;5.284;2022-07-23T00:43:53;17.13;;;9.52;;
60614;SDS011;46444;45.590;5.284;2022-07-23T00:46:22;14.10;;;10.45;;
60614;SDS011;46444;45.590;5.284;2022-07-23T00:48:48;16.48;;;9.88;;
60614;SDS011;46444;45.590;5.284;2022-07-23T00:51:17;16.63;;;9.65;;
60614;SDS011;46444;45.590;5.284;2022-07-23T00:53:42;19.80;;;10.43;;
60614;SDS011;46444;45.590;5.284;2022-07-23T00:56:08;17.45;;;10.02;;
60614;SDS011;46444;45.590;5.284;2022-07-23T00:58:35;14.35;;;9.55;;
60614;SDS011;46444;45.590;5.284;2022-07-23T01:01:01;15.35;;;9.65;;
60614;SDS011;46444;45.590;5.284;2022-07-23T01:03:26;14.52;;;10.02;;
60614;SDS011;46444;45.590;5.284;2022-07-23T01:05:51;15.05;;;9.85;;
60614;SDS011;46444;45.590;5.284;2022-07-23T01:08:18;11.80;;;9.63;;
60614;SDS011;46444;45.590;5.284;2022-07-23T01:10:43;16.65;;;10.68;;
60614;SDS011;46444;45.590;5.284;2022-07-23T01:13:09;22.08;;;11.38;;
60614;SDS011;46444;45.590;5.284;2022-07-23T01:15:36;15.30;;;11.98;;
60614;SDS011;46444;45.590;5.284;2022-07-23T01:18:02;16.13;;;12.00;;
60614;SDS011;46444;45.590;5.284;2022-07-23T01:20:28;16.90;;;11.50;;
60614;SDS011;46444;45.590;5.284;2022-07-23T01:22:54;16.88;;;11.98;;
60614;SDS011;46444;45.590;5.284;2022-07-23T01:25:20;15.15;;;12.23;;
60614;SDS011;46444;45.590;5.284;2022-07-23T01:27:47;21.42;;;12.13;;
60614;SDS011;46444;45.590;5.284;2022-07-23T01:30:13;19.63;;;12.60;;
60614;SDS011;46444;45.590;5.284;2022-07-23T01:32:39;17.13;;;11.90;;
60614;SDS011;46444;45.590;5.284;2022-07-23T01:35:04;15.02;;;11.48;;
60614;SDS011;46444;45.590;5.284;2022-07-23T01:37:30;16.73;;;12.90;;
60614;SDS011;46444;45.590;5.284;2022-07-23T01:39:56;17.05;;;12.48;;
60614;SDS011;46444;45.590;5.284;2022-07-23T01:42:21;15.65;;;12.00;;
60614;SDS011;46444;45.590;5.284;2022-07-23T01:44:47;16.60;;;12.18;;
60614;SDS011;46444;45.590;5.284;2022-07-23T01:47:12;15.50;;;12.55;;
60614;SDS011;46444;45.590;5.284;2022-07-23T01:49:37;16.75;;;12.63;;
60614;SDS011;46444;45.590;5.284;2022-07-23T01:52:03;17.85;;;12.05;;
60614;SDS011;46444;45.590;5.284;2022-07-23T01:54:32;15.88;;;11.75;;
60614;SDS011;46444;45.590;5.284;2022-07-23T01:56:59;16.05;;;12.30;;
60614;SDS011;46444;45.590;5.284;2022-07-23T01:59:25;15.45;;;11.75;;
60614;SDS011;46444;45.590;5.284;2022-07-23T02:01:51;17.52;;;13.02;;
60614;SDS011;46444;45.590;5.284;2022-07-23T02:04:20;17.25;;;13.05;;
60614;SDS011;46444;45.590;5.284;2022-07-23T02:06:47;15.23;;;12.13;;
60614;SDS011;46444;45.590;5.284;2022-07-23T02:09:13;18.17;;;12.52;;
60614;SDS011;46444;45.590;5.284;2022-07-23T02:11:41;16.88;;;13.02;;
60614;SDS011;46444;45.590;5.284;2022-07-23T02:14:07;18.38;;;13.18;;
60614;SDS011;46444;45.590;5.284;2022-07-23T02:16:32;16.45;;;12.77;;
60614;SDS011;46444;45.590;5.284;2022-07-23T02:18:58;16.98;;;12.35;;
60614;SDS011;46444;45.590;5.284;2022-07-23T02:21:23;15.50;;;12.75;;
60614;SDS011;46444;45.590;5.284;2022-07-23T02:23:48;18.75;;;12.48;;
60614;SDS011;46444;45.590;5.284;2022-07-23T02:26:17;22.17;;;14.10;;
60614;SDS011;46444;45.590;5.284;2022-07-23T02:28:42;16.65;;;12.93;;
60614;SDS011;46444;45.590;5.284;2022-07-23T02:31:08;16.83;;;12.68;;
60614;SDS011;46444;45.590;5.284;2022-07-23T02:33:33;22.13;;;13.65;;
60614;SDS011;46444;45.590;5.284;2022-07-23T02:35:59;17.45;;;13.43;;
60614;SDS011;46444;45.590;5.284;2022-07-23T02:38:25;18.60;;;13.68;;
60614;SDS011;46444;45.590;5.284;2022-07-23T02:40:51;16.65;;;13.70;;
60614;SDS011;46444;45.590;5.284;2022-07-23T02:43:34;19.13;;;13.80;;
60614;SDS011;46444;45.590;5.284;2022-07-23T02:46:06;21.55;;;14.65;;
60614;SDS011;46444;45.590;5.284;2022-07-23T02:48:32;18.98;;;14.68;;
60614;SDS011;46444;45.590;5.284;2022-07-23T02:51:05;15.15;;;13.55;;
60614;SDS011;46444;45.590;5.284;2022-07-23T02:53:40;21.25;;;14.43;;
60614;SDS011;46444;45.590;5.284;2022-07-23T02:56:12;19.27;;;12.95;;
60614;SDS011;46444;45.590;5.284;2022-07-23T02:58:37;16.70;;;13.35;;
60614;SDS011;46444;45.590;5.284;2022-07-23T03:01:03;18.23;;;12.98;;
60614;SDS011;46444;45.590;5.284;2022-07-23T03:03:44;19.05;;;13.73;;
60614;SDS011;46444;45.590;5.284;2022-07-23T03:06:09;16.85;;;14.00;;
60614;SDS011;46444;45.590;5.284;2022-07-23T03:08:35;19.10;;;15.30;;
60614;SDS011;46444;45.590;5.284;2022-07-23T03:11:00;17.63;;;13.77;;
60614;SDS011;46444;45.590;5.284;2022-07-23T03:13:26;16.75;;;13.85;;
60614;SDS011;46444;45.590;5.284;2022-07-23T03:15:52;15.40;;;13.50;;
60614;SDS011;46444;45.590;5.284;2022-07-23T03:18:18;16.33;;;13.90;;
60614;SDS011;46444;45.590;5.284;2022-07-23T03:20:43;18.85;;;13.25;;
60614;SDS011;46444;45.590;5.284;2022-07-23T03:23:12;24.67;;;14.40;;
60614;SDS011;46444;45.590;5.284;2022-07-23T03:25:49;21.15;;;13.35;;
60614;SDS011;46444;45.590;5.284;2022-07-23T03:28:15;15.93;;;13.23;;
60614;SDS011;46444;45.590;5.284;2022-07-23T03:30:50;19.60;;;14.45;;
60614;SDS011;46444;45.590;5.284;2022-07-23T03:33:16;14.35;;;12.85;;
60614;SDS011;46444;45.590;5.284;2022-07-23T03:35:42;16.55;;;13.35;;
60614;SDS011;46444;45.590;5.284;2022-07-23T03:38:08;15.68;;;12.88;;
60614;SDS011;46444;45.590;5.284;2022-07-23T03:40:34;15.05;;;12.88;;
60614;SDS011;46444;45.590;5.284;2022-07-23T03:42:59;18.73;;;12.73;;
60614;SDS011;46444;45.590;5.284;2022-07-23T03:45:24;13.43;;;11.38;;
60614;SDS011;46444;45.590;5.284;2022-07-23T03:47:50;12.60;;;11.15;;
60614;SDS011;46444;45.590;5.284;2022-07-23T03:50:15;13.73;;;10.50;;
60614;SDS011;46444;45.590;5.284;2022-07-23T03:52:40;15.32;;;10.57;;
60614;SDS011;46444;45.590;5.284;2022-07-23T03:55:06;12.18;;;10.35;;
60614;SDS011;46444;45.590;5.284;2022-07-23T03:57:32;13.52;;;10.02;;
60614;SDS011;46444;45.590;5.284;2022-07-23T03:59:58;13.55;;;10.30;;
60614;SDS011;46444;45.590;5.284;2022-07-23T04:02:23;11.35;;;10.15;;
60614;SDS011;46444;45.590;5.284;2022-07-23T04:04:49;12.82;;;9.43;;
60614;SDS011;46444;45.590;5.284;2022-07-23T04:07:14;11.65;;;10.52;;
60614;SDS011;46444;45.590;5.284;2022-07-23T04:09:40;13.68;;;9.85;;
60614;SDS011;46444;45.590;5.284;2022-07-23T04:12:05;12.93;;;10.20;;
60614;SDS011;46444;45.590;5.284;2022-07-23T04:14:31;10.63;;;9.52;;
60614;SDS011;46444;45.590;5.284;2022-07-23T04:16:57;13.43;;;10.45;;
60614;SDS011;46444;45.590;5.284;2022-07-23T04:19:22;12.75;;;10.52;;
60614;SDS011;46444;45.590;5.284;2022-07-23T04:21:48;15.43;;;10.90;;
60614;SDS011;46444;45.590;5.284;2022-07-23T04:24:13;13.20;;;10.27;;
60614;SDS011;46444;45.590;5.284;2022-07-23T04:26:38;12.02;;;10.43;;
60614;SDS011;46444;45.590;5.284;2022-07-23T04:29:04;12.27;;;9.82;;
60614;SDS011;46444;45.590;5.284;2022-07-23T04:40:48;11.10;;;9.85;;
60614;SDS011;46444;45.590;5.284;2022-07-23T04:43:13;13.82;;;10.40;;
60614;SDS011;46444;45.590;5.284;2022-07-23T04:45:38;15.05;;;10.13;;
60614;SDS011;46444;45.590;5.284;2022-07-23T04:48:04;14.48;;;10.68;;
60614;SDS011;46444;45.590;5.284;2022-07-23T04:50:29;12.75;;;10.00;;
60614;SDS011;46444;45.590;5.284;2022-07-23T04:52:55;40.65;;;28.75;;
60614;SDS011;46444;45.590;5.284;2022-07-23T04:55:20;54.33;;;39.43;;
60614;SDS011;46444;45.590;5.284;2022-07-23T04:57:45;46.28;;;34.03;;
60614;SDS011;46444;45.590;5.284;2022-07-23T05:00:11;35.95;;;26.67;;
60614;SDS011;46444;45.590;5.284;2022-07-23T05:02:37;22.58;;;19.08;;
60614;SDS011;46444;45.590;5.284;2022-07-23T05:05:02;19.25;;;14.23;;
60614;SDS011;46444;45.590;5.284;2022-07-23T05:07:27;17.42;;;11.98;;
60614;SDS011;46444;45.590;5.284;2022-07-23T05:09:53;13.70;;;11.23;;
60614;SDS011;46444;45.590;5.284;2022-07-23T05:12:18;13.48;;;10.90;;
60614;SDS011;46444;45.590;5.284;2022-07-23T05:14:43;13.60;;;10.83;;
60614;SDS011;46444;45.590;5.284;2022-07-23T05:17:09;17.35;;;11.02;;
60614;SDS011;46444;45.590;5.284;2022-07-23T05:19:34;12.57;;;11.37;;
60614;SDS011;46444;45.590;5.284;2022-07-23T05:22:00;13.57;;;11.15;;
60614;SDS011;46444;45.590;5.284;2022-07-23T05:24:25;13.65;;;11.95;;
60614;SDS011;46444;45.590;5.284;2022-07-23T05:26:51;13.18;;;11.38;;
60614;SDS011;46444;45.590;5.284;2022-07-23T05:29:16;12.90;;;11.60;;
60614;SDS011;46444;45.590;5.284;2022-07-23T05:31:41;14.80;;;11.40;;
60614;SDS011;46444;45.590;5.284;2022-07-23T05:34:07;14.25;;;12.05;;
60614;SDS011;46444;45.590;5.284;2022-07-23T05:36:32;13.73;;;12.38;;
60614;SDS011;46444;45.590;5.284;2022-07-23T05:38:58;13.50;;;11.98;;
60614;SDS011;46444;45.590;5.284;2022-07-23T05:41:23;13.95;;;12.43;;
60614;SDS011;46444;45.590;5.284;2022-07-23T05:43:49;13.32;;;12.00;;
60614;SDS011;46444;45.590;5.284;2022-07-23T05:46:14;15.20;;;12.18;;
60614;SDS011;46444;45.590;5.284;2022-07-23T05:48:39;13.68;;;12.27;;
60614;SDS011;46444;45.590;5.284;2022-07-23T05:51:06;13.77;;;11.88;;
60614;SDS011;46444;45.590;5.284;2022-07-23T05:53:32;15.93;;;13.07;;
60614;SDS011;46444;45.590;5.284;2022-07-23T05:55:58;15.55;;;10.98;;
60614;SDS011;46444;45.590;5.284;2022-07-23T05:58:23;13.93;;;11.27;;
60614;SDS011;46444;45.590;5.284;2022-07-23T06:00:49;13.07;;;11.85;;
60614;SDS011;46444;45.590;5.284;2022-07-23T06:03:14;12.07;;;10.88;;
60614;SDS011;46444;45.590;5.284;2022-07-23T06:05:39;13.43;;;12.02;;
60614;SDS011;46444;45.590;5.284;2022-07-23T06:08:05;13.27;;;11.88;;
60614;SDS011;46444;45.590;5.284;2022-07-23T06:10:30;14.15;;;12.65;;
60614;SDS011;46444;45.590;5.284;2022-07-23T06:12:56;13.40;;;11.10;;
60614;SDS011;46444;45.590;5.284;2022-07-23T06:15:21;14.95;;;10.25;;
60614;SDS011;46444;45.590;5.284;2022-07-23T06:17:47;12.25;;;9.23;;
60614;SDS011;46444;45.590;5.284;2022-07-23T06:20:12;10.83;;;9.27;;
60614;SDS011;46444;45.590;5.284;2022-07-23T06:22:38;12.55;;;8.95;;
60614;SDS011;46444;45.590;5.284;2022-07-23T06:25:03;12.40;;;9.38;;
60614;SDS011;46444;45.590;5.284;2022-07-23T06:27:29;12.32;;;9.85;;
60614;SDS011;46444;45.590;5.284;2022-07-23T06:29:54;11.45;;;9.88;;
60614;SDS011;46444;45.590;5.284;2022-07-23T06:32:20;11.35;;;10.13;;
60614;SDS011;46444;45.590;5.284;2022-07-23T06:34:46;14.73;;;10.07;;
60614;SDS011;46444;45.590;5.284;2022-07-23T06:37:11;13.38;;;10.15;;
60614;SDS011;46444;45.590;5.284;2022-07-23T06:39:37;12.80;;;9.82;;
60614;SDS011;46444;45.590;5.284;2022-07-23T06:42:02;13.27;;;10.68;;
60614;SDS011;46444;45.590;5.284;2022-07-23T06:44:27;11.43;;;10.30;;
60614;SDS011;46444;45.590;5.284;2022-07-23T06:46:53;11.38;;;9.65;;
60614;SDS011;46444;45.590;5.284;2022-07-23T06:49:18;12.52;;;9.15;;
60614;SDS011;46444;45.590;5.284;2022-07-23T06:51:43;11.82;;;9.55;;
60614;SDS011;46444;45.590;5.284;2022-07-23T06:54:09;11.35;;;9.82;;
60614;SDS011;46444;45.590;5.284;2022-07-23T06:56:34;14.82;;;9.85;;
60614;SDS011;46444;45.590;5.284;2022-07-23T06:59:00;10.57;;;9.32;;
60614;SDS011;46444;45.590;5.284;2022-07-23T07:01:25;10.85;;;9.55;;
60614;SDS011;46444;45.590;5.284;2022-07-23T07:03:51;11.30;;;9.90;;
60614;SDS011;46444;45.590;5.284;2022-07-23T07:06:16;9.45;;;8.55;;
60614;SDS011;46444;45.590;5.284;2022-07-23T07:08:41;9.68;;;8.68;;
60614;SDS011;46444;45.590;5.284;2022-07-23T07:11:09;10.55;;;9.38;;
60614;SDS011;46444;45.590;5.284;2022-07-23T07:13:34;10.90;;;9.40;;
60614;SDS011;46444;45.590;5.284;2022-07-23T07:16:00;10.88;;;9.63;;
60614;SDS011;46444;45.590;5.284;2022-07-23T07:18:25;11.73;;;8.67;;
60614;SDS011;46444;45.590;5.284;2022-07-23T07:20:51;11.05;;;8.60;;
60614;SDS011;46444;45.590;5.284;2022-07-23T07:23:16;10.68;;;9.55;;
60614;SDS011;46444;45.590;5.284;2022-07-23T07:25:41;11.48;;;8.30;;
60614;SDS011;46444;45.590;5.284;2022-07-23T07:28:07;11.15;;;8.90;;
60614;SDS011;46444;45.590;5.284;2022-07-23T07:30:32;11.63;;;9.00;;
60614;SDS011;46444;45.590;5.284;2022-07-23T07:32:57;9.77;;;8.77;;
60614;SDS011;46444;45.590;5.284;2022-07-23T07:35:23;12.13;;;8.67;;
60614;SDS011;46444;45.590;5.284;2022-07-23T07:37:49;11.43;;;8.90;;
60614;SDS011;46444;45.590;5.284;2022-07-23T07:40:14;11.52;;;9.25;;
60614;SDS011;46444;45.590;5.284;2022-07-23T07:42:50;13.73;;;9.32;;
60614;SDS011;46444;45.590;5.284;2022-07-23T07:45:16;10.07;;;9.07;;
60614;SDS011;46444;45.590;5.284;2022-07-23T07:47:44;10.30;;;9.05;;
60614;SDS011;46444;45.590;5.284;2022-07-23T07:50:10;13.82;;;8.77;;
60614;SDS011;46444;45.590;5.284;2022-07-23T07:52:35;12.43;;;9.10;;
60614;SDS011;46444;45.590;5.284;2022-07-23T07:55:02;10.38;;;9.25;;
60614;SDS011;46444;45.590;5.284;2022-07-23T07:57:28;10.73;;;9.50;;
60614;SDS011;46444;45.590;5.284;2022-07-23T07:59:53;15.03;;;9.87;;
60614;SDS011;46444;45.590;5.284;2022-07-23T08:02:18;12.43;;;9.00;;
60614;SDS011;46444;45.590;5.284;2022-07-23T08:04:44;9.93;;;8.77;;
60614;SDS011;46444;45.590;5.284;2022-07-23T08:07:09;15.88;;;9.38;;
60614;SDS011;46444;45.590;5.284;2022-07-23T08:09:35;10.30;;;8.90;;
60614;SDS011;46444;45.590;5.284;2022-07-23T08:12:00;11.57;;;9.25;;
60614;SDS011;46444;45.590;5.284;2022-07-23T08:14:26;12.07;;;9.10;;
60614;SDS011;46444;45.590;5.284;2022-07-23T08:16:51;11.90;;;9.85;;
60614;SDS011;46444;45.590;5.284;2022-07-23T08:19:19;13.77;;;9.73;;
60614;SDS011;46444;45.590;5.284;2022-07-23T08:21:51;11.70;;;9.45;;
60614;SDS011;46444;45.590;5.284;2022-07-23T08:24:16;14.63;;;9.15;;
60614;SDS011;46444;45.590;5.284;2022-07-23T08:26:41;16.58;;;10.27;;
60614;SDS011;46444;45.590;5.284;2022-07-23T08:29:07;11.65;;;9.63;;
60614;SDS011;46444;45.590;5.284;2022-07-23T08:31:32;12.63;;;9.00;;
60614;SDS011;46444;45.590;5.284;2022-07-23T08:33:58;12.25;;;9.40;;
60614;SDS011;46444;45.590;5.284;2022-07-23T08:36:27;11.43;;;9.20;;
60614;SDS011;46444;45.590;5.284;2022-07-23T08:38:57;11.60;;;9.10;;
60614;SDS011;46444;45.590;5.284;2022-07-23T08:41:24;12.88;;;8.82;;
60614;SDS011;46444;45.590;5.284;2022-07-23T08:43:50;9.93;;;8.98;;
60614;SDS011;46444;45.590;5.284;2022-07-23T08:46:16;12.05;;;8.75;;
60614;SDS011;46444;45.590;5.284;2022-07-23T08:48:44;12.23;;;9.45;;
60614;SDS011;46444;45.590;5.284;2022-07-23T08:51:12;9.73;;;8.82;;
60614;SDS011;46444;45.590;5.284;2022-07-23T08:53:38;9.30;;;8.27;;
60614;SDS011;46444;45.590;5.284;2022-07-23T08:56:05;13.57;;;9.05;;
60614;SDS011;46444;45.590;5.284;2022-07-23T08:58:31;11.95;;;9.27;;
60614;SDS011;46444;45.590;5.284;2022-07-23T09:00:56;11.02;;;9.02;;
60614;SDS011;46444;45.590;5.284;2022-07-23T09:03:32;12.00;;;8.80;;
60614;SDS011;46444;45.590;5.284;2022-07-23T09:06:00;12.25;;;8.45;;
60614;SDS011;46444;45.590;5.284;2022-07-23T09:08:37;12.10;;;8.73;;
60614;SDS011;46444;45.590;5.284;2022-07-23T09:11:04;10.35;;;8.30;;
60614;SDS011;46444;45.590;5.284;2022-07-23T09:16:12;10.02;;;8.27;;
60614;SDS011;46444;45.590;5.284;2022-07-23T09:18:55;9.82;;;7.93;;
60614;SDS011;46444;45.590;5.284;2022-07-23T09:23:58;11.60;;;8.27;;
60614;SDS011;46444;45.590;5.284;2022-07-23T09:26:29;10.68;;;7.70;;
60614;SDS011;46444;45.590;5.284;2022-07-23T09:29:21;8.65;;;7.75;;
60614;SDS011;46444;45.590;5.284;2022-07-23T09:34:21;11.73;;;8.13;;
60614;SDS011;46444;45.590;5.284;2022-07-23T09:36:56;10.95;;;7.35;;
60614;SDS011;46444;45.590;5.284;2022-07-23T09:39:27;11.80;;;7.57;;
60614;SDS011;46444;45.590;5.284;2022-07-23T09:41:54;9.07;;;8.02;;
60614;SDS011;46444;45.590;5.284;2022-07-23T09:44:21;11.10;;;8.05;;
60614;SDS011;46444;45.590;5.284;2022-07-23T09:46:47;10.80;;;9.00;;
60614;SDS011;46444;45.590;5.284;2022-07-23T09:49:15;10.63;;;9.27;;
60614;SDS011;46444;45.590;5.284;2022-07-23T09:54:22;13.80;;;8.65;;
60614;SDS011;46444;45.590;5.284;2022-07-23T09:56:54;9.35;;;8.32;;
60614;SDS011;46444;45.590;5.284;2022-07-23T09:59:27;12.18;;;8.77;;
60614;SDS011;46444;45.590;5.284;2022-07-23T10:01:55;9.90;;;8.10;;
60614;SDS011;46444;45.590;5.284;2022-07-23T10:04:22;10.23;;;8.40;;
60614;SDS011;46444;45.590;5.284;2022-07-23T10:06:50;8.88;;;7.93;;
60614;SDS011;46444;45.590;5.284;2022-07-23T10:09:20;10.88;;;8.25;;
60614;SDS011;46444;45.590;5.284;2022-07-23T10:11:48;9.98;;;8.40;;
60614;SDS011;46444;45.590;5.284;2022-07-23T10:14:15;9.90;;;8.07;;
60614;SDS011;46444;45.590;5.284;2022-07-23T10:16:41;11.90;;;8.52;;
60614;SDS011;46444;45.590;5.284;2022-07-23T10:19:07;8.70;;;7.60;;
60614;SDS011;46444;45.590;5.284;2022-07-23T10:21:45;8.23;;;7.40;;
60614;SDS011;46444;45.590;5.284;2022-07-23T10:24:17;10.57;;;8.20;;
60614;SDS011;46444;45.590;5.284;2022-07-23T10:30:06;12.30;;;8.02;;
60614;SDS011;46444;45.590;5.284;2022-07-23T10:33:15;9.82;;;7.82;;
60614;SDS011;46444;45.590;5.284;2022-07-23T10:41:34;10.82;;;7.30;;
60614;SDS011;46444;45.590;5.284;2022-07-23T10:44:08;8.73;;;7.47;;
60614;SDS011;46444;45.590;5.284;2022-07-23T10:46:56;13.23;;;9.02;;
60614;SDS011;46444;45.590;5.284;2022-07-23T10:49:44;11.18;;;8.60;;
60614;SDS011;46444;45.590;5.284;2022-07-23T10:54:38;8.50;;;7.38;;
60614;SDS011;46444;45.590;5.284;2022-07-23T10:57:11;10.52;;;7.88;;
60614;SDS011;46444;45.590;5.284;2022-07-23T11:02:33;10.32;;;7.40;;
60614;SDS011;46444;45.590;5.284;2022-07-23T11:05:10;10.77;;;8.35;;
60614;SDS011;46444;45.590;5.284;2022-07-23T11:07:39;10.50;;;7.63;;
60614;SDS011;46444;45.590;5.284;2022-07-23T11:11:07;17.55;;;14.55;;
60614;SDS011;46444;45.590;5.284;2022-07-23T11:13:29;12.35;;;9.52;;
60614;SDS011;46444;45.590;5.284;2022-07-23T11:32:02;11.10;;;7.43;;
60614;SDS011;46444;45.590;5.284;2022-07-23T11:34:39;11.25;;;7.93;;
60614;SDS011;46444;45.590;5.284;2022-07-23T11:37:11;10.77;;;7.28;;
60614;SDS011;46444;45.590;5.284;2022-07-23T11:39:53;9.75;;;7.55;;
60614;SDS011;46444;45.590;5.284;2022-07-23T11:42:19;9.93;;;7.43;;
60614;SDS011;46444;45.590;5.284;2022-07-23T11:44:46;9.57;;;7.30;;
60614;SDS011;46444;45.590;5.284;2022-07-23T11:47:14;8.52;;;7.50;;
60614;SDS011;46444;45.590;5.284;2022-07-23T11:49:51;9.57;;;7.25;;
60614;SDS011;46444;45.590;5.284;2022-07-23T11:52:17;10.95;;;7.60;;
60614;SDS011;46444;45.590;5.284;2022-07-23T11:54:47;9.05;;;7.20;;
60614;SDS011;46444;45.590;5.284;2022-07-23T11:57:19;10.73;;;6.82;;
60614;SDS011;46444;45.590;5.284;2022-07-23T11:59:46;11.93;;;7.55;;
60614;SDS011;46444;45.590;5.284;2022-07-23T12:02:14;10.15;;;7.13;;
60614;SDS011;46444;45.590;5.284;2022-07-23T12:04:46;8.35;;;7.05;;
60614;SDS011;46444;45.590;5.284;2022-07-23T12:07:27;7.45;;;6.72;;
60614;SDS011;46444;45.590;5.284;2022-07-23T12:10:19;11.20;;;6.93;;
60614;SDS011;46444;45.590;5.284;2022-07-23T12:12:59;9.77;;;7.88;;
60614;SDS011;46444;45.590;5.284;2022-07-23T12:15:51;10.18;;;7.45;;
60614;SDS011;46444;45.590;5.284;2022-07-23T12:18:19;15.40;;;8.45;;
60614;SDS011;46444;45.590;5.284;2022-07-23T12:20:50;10.00;;;7.43;;
60614;SDS011;46444;45.590;5.284;2022-07-23T12:23:22;9.13;;;7.55;;
60614;SDS011;46444;45.590;5.284;2022-07-23T12:25:49;10.73;;;8.13;;
60614;SDS011;46444;45.590;5.284;2022-07-23T12:28:17;8.60;;;7.70;;
60614;SDS011;46444;45.590;5.284;2022-07-23T12:30:51;8.35;;;7.30;;
60614;SDS011;46444;45.590;5.284;2022-07-23T12:33:30;8.65;;;7.22;;
60614;SDS011;46444;45.590;5.284;2022-07-23T12:35:58;10.60;;;7.22;;
60614;SDS011;46444;45.590;5.284;2022-07-23T12:38:26;13.10;;;7.40;;
60614;SDS011;46444;45.590;5.284;2022-07-23T12:40:57;9.95;;;6.90;;
60614;SDS011;46444;45.590;5.284;2022-07-23T12:43:28;8.15;;;7.20;;
60614;SDS011;46444;45.590;5.284;2022-07-23T12:46:04;8.68;;;7.10;;
60614;SDS011;46444;45.590;5.284;2022-07-23T12:51:18;8.45;;;7.38;;
60614;SDS011;46444;45.590;5.284;2022-07-23T12:53:47;9.27;;;7.22;;
60614;SDS011;46444;45.590;5.284;2022-07-23T12:56:18;9.05;;;7.32;;
60614;SDS011;46444;45.590;5.284;2022-07-23T12:58:58;8.98;;;7.35;;
60614;SDS011;46444;45.590;5.284;2022-07-23T13:01:39;8.38;;;7.10;;
60614;SDS011;46444;45.590;5.284;2022-07-23T13:04:10;9.30;;;7.15;;
60614;SDS011;46444;45.590;5.284;2022-07-23T13:06:57;11.32;;;7.20;;
60614;SDS011;46444;45.590;5.284;2022-07-23T13:09:29;9.15;;;6.82;;
60614;SDS011;46444;45.590;5.284;2022-07-23T13:11:58;11.20;;;7.10;;
60614;SDS011;46444;45.590;5.284;2022-07-23T13:14:25;7.15;;;6.38;;
60614;SDS011;46444;45.590;5.284;2022-07-23T13:16:51;11.00;;;7.25;;
60614;SDS011;46444;45.590;5.284;2022-07-23T13:19:18;7.68;;;6.88;;
60614;SDS011;46444;45.590;5.284;2022-07-23T13:21:47;8.23;;;7.03;;
60614;SDS011;46444;45.590;5.284;2022-07-23T13:24:13;8.00;;;6.65;;
60614;SDS011;46444;45.590;5.284;2022-07-23T13:26:41;9.55;;;6.63;;
60614;SDS011;46444;45.590;5.284;2022-07-23T13:29:11;10.10;;;7.25;;
60614;SDS011;46444;45.590;5.284;2022-07-23T13:31:37;8.27;;;6.63;;
60614;SDS011;46444;45.590;5.284;2022-07-23T13:34:03;10.70;;;6.63;;
60614;SDS011;46444;45.590;5.284;2022-07-23T13:36:28;10.77;;;7.20;;
60614;SDS011;46444;45.590;5.284;2022-07-23T13:38:54;11.88;;;6.75;;
60614;SDS011;46444;45.590;5.284;2022-07-23T13:41:20;12.68;;;6.75;;
60614;SDS011;46444;45.590;5.284;2022-07-23T13:43:57;7.75;;;6.72;;
60614;SDS011;46444;45.590;5.284;2022-07-23T13:46:23;9.25;;;7.13;;
60614;SDS011;46444;45.590;5.284;2022-07-23T13:48:51;7.88;;;6.60;;
60614;SDS011;46444;45.590;5.284;2022-07-23T13:51:19;7.65;;;6.65;;
60614;SDS011;46444;45.590;5.284;2022-07-23T13:53:57;7.47;;;6.65;;
60614;SDS011;46444;45.590;5.284;2022-07-23T13:56:24;7.70;;;6.90;;
60614;SDS011;46444;45.590;5.284;2022-07-23T13:58:50;8.88;;;7.10;;
60614;SDS011;46444;45.590;5.284;2022-07-23T14:01:18;9.10;;;7.30;;
60614;SDS011;46444;45.590;5.284;2022-07-23T14:03:46;8.93;;;6.97;;
60614;SDS011;46444;45.590;5.284;2022-07-23T14:06:19;10.00;;;6.88;;
60614;SDS011;46444;45.590;5.284;2022-07-23T14:08:48;13.68;;;7.40;;
60614;SDS011;46444;45.590;5.284;2022-07-23T14:11:13;11.07;;;7.22;;
60614;SDS011;46444;45.590;5.284;2022-07-23T14:13:39;9.27;;;7.40;;
60614;SDS011;46444;45.590;5.284;2022-07-23T14:16:04;10.77;;;6.97;;
60614;SDS011;46444;45.590;5.284;2022-07-23T14:18:30;7.35;;;6.53;;
60614;SDS011;46444;45.590;5.284;2022-07-23T14:20:55;7.60;;;6.85;;
60614;SDS011;46444;45.590;5.284;2022-07-23T14:23:21;9.23;;;7.07;;
60614;SDS011;46444;45.590;5.284;2022-07-23T14:25:46;10.23;;;6.95;;
60614;SDS011;46444;45.590;5.284;2022-07-23T14:28:11;8.57;;;6.70;;
60614;SDS011;46444;45.590;5.284;2022-07-23T14:30:37;7.70;;;6.82;;
60614;SDS011;46444;45.590;5.284;2022-07-23T14:33:02;8.32;;;6.78;;
60614;SDS011;46444;45.590;5.284;2022-07-23T14:35:48;8.23;;;6.90;;
60614;SDS011;46444;45.590;5.284;2022-07-23T14:38:35;9.43;;;6.63;;
60614;SDS011;46444;45.590;5.284;2022-07-23T14:41:15;8.50;;;6.80;;
60614;SDS011;46444;45.590;5.284;2022-07-23T14:44:11;9.77;;;6.63;;
60614;SDS011;46444;45.590;5.284;2022-07-23T14:49:32;7.80;;;6.55;;
60614;SDS011;46444;45.590;5.284;2022-07-23T14:51:58;10.88;;;6.43;;
60614;SDS011;46444;45.590;5.284;2022-07-23T14:54:24;8.40;;;6.25;;
60614;SDS011;46444;45.590;5.284;2022-07-23T14:56:51;8.73;;;6.57;;
60614;SDS011;46444;45.590;5.284;2022-07-23T14:59:17;8.00;;;6.93;;
60614;SDS011;46444;45.590;5.284;2022-07-23T15:01:42;9.00;;;6.30;;
60614;SDS011;46444;45.590;5.284;2022-07-23T15:04:08;7.22;;;5.88;;
60614;SDS011;46444;45.590;5.284;2022-07-23T15:06:33;9.48;;;6.47;;
60614;SDS011;46444;45.590;5.284;2022-07-23T15:08:58;10.38;;;6.40;;
60614;SDS011;46444;45.590;5.284;2022-07-23T15:11:25;8.27;;;6.45;;
60614;SDS011;46444;45.590;5.284;2022-07-23T15:13:51;11.88;;;6.45;;
60614;SDS011;46444;45.590;5.284;2022-07-23T15:16:17;14.13;;;5.90;;
60614;SDS011;46444;45.590;5.284;2022-07-23T15:18:52;11.30;;;6.40;;
60614;SDS011;46444;45.590;5.284;2022-07-23T15:21:17;6.85;;;5.75;;
60614;SDS011;46444;45.590;5.284;2022-07-23T15:23:43;7.57;;;5.57;;
60614;SDS011;46444;45.590;5.284;2022-07-23T15:26:08;9.13;;;5.88;;
60614;SDS011;46444;45.590;5.284;2022-07-23T15:28:37;7.28;;;5.85;;
60614;SDS011;46444;45.590;5.284;2022-07-23T15:31:03;9.20;;;5.90;;
60614;SDS011;46444;45.590;5.284;2022-07-23T15:33:29;6.70;;;5.85;;